createdAt,value
2023-04-10T00:00:29.755Z,96203
2023-04-10T00:01:39.416Z,96199
2023-04-10T00:02:47.202Z,96202
2023-04-10T00:03:56.191Z,96199
2023-04-10T00:05:04.431Z,96203
2023-04-10T00:06:14.045Z,96204
2023-04-10T00:07:23.682Z,96207
2023-04-10T00:08:33.358Z,96206
2023-04-10T00:09:40.964Z,96208
2023-04-10T00:10:50.698Z,96205
2023-04-10T00:11:58.349Z,96208
2023-04-10T00:13:07.995Z,96207
2023-04-10T00:14:17.638Z,96199
2023-04-10T00:15:25.312Z,96198
2023-04-10T00:16:35.108Z,96200
2023-04-10T00:17:44.653Z,96197
2023-04-10T00:18:52.277Z,96197
2023-04-10T00:20:01.932Z,96196
2023-04-10T00:21:10.614Z,96202
2023-04-10T00:22:20.264Z,96196
2023-04-10T00:23:29.916Z,96196
2023-04-10T00:24:38.566Z,96199
2023-04-10T00:25:47.225Z,96196
2023-04-10T00:26:56.885Z,96197
2023-04-10T00:28:04.547Z,96197
2023-04-10T00:29:13.204Z,96201
2023-04-10T00:30:20.862Z,96200
2023-04-10T00:31:29.530Z,96195
2023-04-10T00:32:39.360Z,96197
2023-04-10T00:33:47.947Z,96196
2023-04-10T00:34:56.675Z,96193
2023-04-10T00:36:06.369Z,96191
2023-04-10T00:37:14.997Z,96191
2023-04-10T00:38:23.656Z,96189
2023-04-10T00:39:32.307Z,96187
2023-04-10T00:40:41.991Z,96184
2023-04-10T00:41:51.644Z,96183
2023-04-10T00:43:00.328Z,96180
2023-04-10T00:44:08.994Z,96180
2023-04-10T00:45:18.629Z,96175
2023-04-10T00:46:27.479Z,96176
2023-04-10T00:47:36.013Z,96175
2023-04-10T00:48:45.689Z,96177
2023-04-10T00:49:55.314Z,96179
2023-04-10T00:51:04.991Z,96176
2023-04-10T00:52:13.641Z,96180
2023-04-10T00:53:23.300Z,96179
2023-04-10T00:54:32.001Z,96178
2023-04-10T00:55:39.681Z,96176
2023-04-10T00:56:48.338Z,96176
2023-04-10T00:57:57.008Z,96168
2023-04-10T00:59:07.124Z,96172
2023-04-10T01:00:14.289Z,96169
2023-04-10T01:01:22.071Z,96170
2023-04-10T01:02:30.768Z,96166
2023-04-10T01:03:40.400Z,96167
2023-04-10T01:04:48.038Z,96165
2023-04-10T01:05:55.664Z,96170
2023-04-10T01:07:04.331Z,96165
2023-04-10T01:08:12.979Z,96171
2023-04-10T01:09:22.638Z,96167
2023-04-10T01:10:32.330Z,96173
2023-04-10T01:11:41.009Z,96166
2023-04-10T01:12:50.677Z,96168
2023-04-10T01:13:58.341Z,96167
2023-04-10T01:15:06.990Z,96166
2023-04-10T01:16:16.735Z,96171
2023-04-10T01:17:25.393Z,96172
2023-04-10T01:18:35.044Z,96173
2023-04-10T01:19:42.693Z,96177
2023-04-10T01:20:52.394Z,96175
2023-04-10T01:22:02.044Z,96182
2023-04-10T01:23:10.683Z,96182
2023-04-10T01:24:19.430Z,96184
2023-04-10T01:25:28.130Z,96182
2023-04-10T01:26:37.794Z,96180
2023-04-10T01:27:47.469Z,96180
2023-04-10T01:28:55.103Z,96182
2023-04-10T01:30:03.777Z,96184
2023-04-10T01:31:13.504Z,96181
2023-04-10T01:32:21.181Z,96182
2023-04-10T01:33:29.760Z,96185
2023-04-10T01:34:38.475Z,96180
2023-04-10T01:35:47.119Z,96180
2023-04-10T01:36:56.785Z,96180
2023-04-10T01:38:06.424Z,96172
2023-04-10T01:39:16.067Z,96171
2023-04-10T01:40:25.715Z,96172
2023-04-10T01:41:34.390Z,96170
2023-04-10T01:42:44.879Z,96167
2023-04-10T01:43:52.849Z,96169
2023-04-10T01:45:01.379Z,96167
2023-04-10T01:46:12.059Z,96162
2023-04-10T01:47:21.737Z,96163
2023-04-10T01:48:30.387Z,96158
2023-04-10T01:49:40.034Z,96159
2023-04-10T01:50:49.757Z,96158
2023-04-10T01:51:59.451Z,96157
2023-04-10T01:53:09.087Z,96153
2023-04-10T01:54:18.728Z,96156
2023-04-10T01:55:28.421Z,96154
2023-04-10T01:56:37.084Z,96149
2023-04-10T01:57:46.784Z,96151
2023-04-10T01:58:56.451Z,96151
2023-04-10T02:00:05.157Z,96152
2023-04-10T02:01:22.673Z,96149
2023-04-10T02:02:25.639Z,96147
2023-04-10T02:03:35.229Z,96139
2023-04-10T02:04:44.831Z,96142
2023-04-10T02:05:53.524Z,96135
2023-04-10T02:07:02.189Z,96141
2023-04-10T02:08:10.924Z,96138
2023-04-10T02:09:20.582Z,96140
2023-04-10T02:10:29.332Z,96136
2023-04-10T02:11:39.033Z,96139
2023-04-10T02:12:46.683Z,96138
2023-04-10T02:13:55.556Z,96136
2023-04-10T02:15:05.034Z,96138
2023-04-10T02:16:13.793Z,96136
2023-04-10T02:17:23.467Z,96142
2023-04-10T02:18:33.070Z,96136
2023-04-10T02:19:41.733Z,96138
2023-04-10T02:20:51.454Z,96141
2023-04-10T02:22:00.233Z,96145
2023-04-10T02:23:09.906Z,96144
2023-04-10T02:24:19.604Z,96147
2023-04-10T02:25:28.250Z,96146
2023-04-10T02:26:36.935Z,96147
2023-04-10T02:27:46.606Z,96141
2023-04-10T02:28:55.271Z,96147
2023-04-10T02:30:04.928Z,96147
2023-04-10T02:31:12.632Z,96145
2023-04-10T02:32:21.288Z,96144
2023-04-10T02:33:30.986Z,96143
2023-04-10T02:34:38.661Z,96145
2023-04-10T02:35:48.389Z,96147
2023-04-10T02:36:58.086Z,96141
2023-04-10T02:38:07.731Z,96146
2023-04-10T02:39:18.382Z,96142
2023-04-10T02:40:26.069Z,96142
2023-04-10T02:41:35.730Z,96142
2023-04-10T02:42:45.452Z,96147
2023-04-10T02:43:53.214Z,96142
2023-04-10T02:45:01.797Z,96146
2023-04-10T02:46:10.471Z,96145
2023-04-10T02:47:19.204Z,96145
2023-04-10T02:48:27.844Z,96151
2023-04-10T02:49:36.491Z,96149
2023-04-10T02:50:45.165Z,96150
2023-04-10T02:51:54.986Z,96152
2023-04-10T02:53:03.672Z,96149
2023-04-10T02:54:13.395Z,96147
2023-04-10T02:55:22.063Z,96148
2023-04-10T02:56:30.790Z,96152
2023-04-10T02:57:40.447Z,96152
2023-04-10T02:58:49.109Z,96152
2023-04-10T02:59:57.764Z,96150
2023-04-10T03:01:07.468Z,96146
2023-04-10T03:02:16.177Z,96153
2023-04-10T03:03:25.939Z,96151
2023-04-10T03:04:34.528Z,96152
2023-04-10T03:05:44.128Z,96156
2023-04-10T03:06:53.998Z,96151
2023-04-10T03:08:02.656Z,96144
2023-04-10T03:09:12.323Z,96152
2023-04-10T03:10:21.977Z,96144
2023-04-10T03:11:29.662Z,96141
2023-04-10T03:12:38.392Z,96149
2023-04-10T03:13:48.013Z,96149
2023-04-10T03:14:56.680Z,96141
2023-04-10T03:16:06.345Z,96145
2023-04-10T03:17:15.015Z,96147
2023-04-10T03:18:23.675Z,96146
2023-04-10T03:19:33.351Z,96142
2023-04-10T03:20:41.648Z,96145
2023-04-10T03:21:50.674Z,96148
2023-04-10T03:22:59.446Z,96142
2023-04-10T03:24:09.011Z,96145
2023-04-10T03:25:19.739Z,96146
2023-04-10T03:26:29.396Z,96146
2023-04-10T03:27:39.078Z,96142
2023-04-10T03:28:47.763Z,96143
2023-04-10T03:29:56.427Z,96141
2023-04-10T03:31:06.111Z,96142
2023-04-10T03:32:14.792Z,96137
2023-04-10T03:33:23.490Z,96140
2023-04-10T03:34:33.144Z,96139
2023-04-10T03:35:40.829Z,96136
2023-04-10T03:36:49.484Z,96138
2023-04-10T03:37:59.165Z,96135
2023-04-10T03:39:07.870Z,96135
2023-04-10T03:40:17.522Z,96134
2023-04-10T03:41:26.188Z,96137
2023-04-10T03:42:35.917Z,96134
2023-04-10T03:43:45.593Z,96137
2023-04-10T03:44:54.296Z,96138
2023-04-10T03:46:03.936Z,96141
2023-04-10T03:47:13.663Z,96141
2023-04-10T03:48:21.318Z,96140
2023-04-10T03:49:30.996Z,96144
2023-04-10T03:50:39.667Z,96141
2023-04-10T03:51:48.365Z,96141
2023-04-10T03:52:58.038Z,96140
2023-04-10T03:54:07.749Z,96143
2023-04-10T03:55:16.390Z,96142
2023-04-10T03:56:26.064Z,96142
2023-04-10T03:57:35.756Z,96140
2023-04-10T03:58:44.435Z,96140
2023-04-10T03:59:52.117Z,96141
2023-04-10T04:01:01.892Z,96146
2023-04-10T04:02:11.538Z,96145
2023-04-10T04:03:21.362Z,96142
2023-04-10T04:04:28.935Z,96147
2023-04-10T04:05:37.664Z,96147
2023-04-10T04:06:47.302Z,96143
2023-04-10T04:07:57.049Z,96152
2023-04-10T04:09:06.770Z,96145
2023-04-10T04:10:16.436Z,96148
2023-04-10T04:11:25.104Z,96145
2023-04-10T04:12:34.808Z,96145
2023-04-10T04:13:44.544Z,96143
2023-04-10T04:14:52.226Z,96141
2023-04-10T04:16:01.920Z,96142
2023-04-10T04:17:10.812Z,96140
2023-04-10T04:18:20.477Z,96146
2023-04-10T04:19:28.143Z,96145
2023-04-10T04:20:36.847Z,96147
2023-04-10T04:21:46.529Z,96142
2023-04-10T04:22:56.270Z,96143
2023-04-10T04:24:04.949Z,96136
2023-04-10T04:25:14.617Z,96141
2023-04-10T04:26:23.318Z,96142
2023-04-10T04:27:33.047Z,96140
2023-04-10T04:28:40.710Z,96148
2023-04-10T04:29:50.453Z,96142
2023-04-10T04:31:00.153Z,96146
2023-04-10T04:32:09.801Z,96145
2023-04-10T04:33:18.565Z,96145
2023-04-10T04:34:28.228Z,96143
2023-04-10T04:35:36.991Z,96145
2023-04-10T04:36:46.616Z,96146
2023-04-10T04:37:54.328Z,96139
2023-04-10T04:39:04.048Z,96145
2023-04-10T04:40:13.702Z,96140
2023-04-10T04:41:22.345Z,96145
2023-04-10T04:42:30.001Z,96141
2023-04-10T04:43:38.703Z,96149
2023-04-10T04:44:47.356Z,96151
2023-04-10T04:45:57.137Z,96147
2023-04-10T04:47:04.782Z,96146
2023-04-10T04:48:14.492Z,96152
2023-04-10T04:49:24.179Z,96153
2023-04-10T04:50:31.811Z,96152
2023-04-10T04:51:41.493Z,96156
2023-04-10T04:52:51.155Z,96156
2023-04-10T04:53:59.930Z,96157
2023-04-10T04:55:09.748Z,96154
2023-04-10T04:56:18.417Z,96156
2023-04-10T04:57:28.101Z,96161
2023-04-10T04:58:37.831Z,96157
2023-04-10T04:59:47.501Z,96159
2023-04-10T05:00:56.227Z,96157
2023-04-10T05:02:04.950Z,96157
2023-04-10T05:03:14.757Z,96160
2023-04-10T05:04:24.434Z,96163
2023-04-10T05:05:32.040Z,96160
2023-04-10T05:06:40.786Z,96161
2023-04-10T05:07:49.465Z,96159
2023-04-10T05:08:58.194Z,96156
2023-04-10T05:10:06.889Z,96158
2023-04-10T05:11:15.599Z,96159
2023-04-10T05:12:24.280Z,96160
2023-04-10T05:13:34.010Z,96159
2023-04-10T05:14:41.652Z,96160
2023-04-10T05:15:50.338Z,96160
2023-04-10T05:17:01.566Z,96162
2023-04-10T05:18:08.768Z,96164
2023-04-10T05:19:17.367Z,96164
2023-04-10T05:20:27.053Z,96161
2023-04-10T05:21:36.746Z,96161
2023-04-10T05:22:46.444Z,96165
2023-04-10T05:23:55.159Z,96160
2023-04-10T05:25:04.817Z,96154
2023-04-10T05:26:14.486Z,96154
2023-04-10T05:27:24.141Z,96155
2023-04-10T05:28:33.827Z,96155
2023-04-10T05:29:42.513Z,96148
2023-04-10T05:30:52.249Z,96156
2023-04-10T05:32:01.907Z,96152
2023-04-10T05:33:09.528Z,96154
2023-04-10T05:34:18.192Z,96157
2023-04-10T05:35:27.862Z,96158
2023-04-10T05:36:36.525Z,96157
2023-04-10T05:37:44.207Z,96160
2023-04-10T05:38:54.264Z,96163
2023-04-10T05:40:03.578Z,96162
2023-04-10T05:41:13.243Z,96162
2023-04-10T05:42:23.808Z,96162
2023-04-10T05:43:30.581Z,96170
2023-04-10T05:44:40.270Z,96169
2023-04-10T05:45:47.941Z,96171
2023-04-10T05:46:56.644Z,96170
2023-04-10T05:48:06.377Z,96167
2023-04-10T05:49:15.003Z,96171
2023-04-10T05:50:24.672Z,96167
2023-04-10T05:51:33.342Z,96169
2023-04-10T05:52:43.016Z,96165
2023-04-10T05:53:52.842Z,96164
2023-04-10T05:55:00.386Z,96169
2023-04-10T05:56:10.055Z,96168
2023-04-10T05:57:18.702Z,96166
2023-04-10T05:58:28.400Z,96172
2023-04-10T05:59:38.057Z,96172
2023-04-10T06:00:46.757Z,96174
2023-04-10T06:01:55.445Z,96177
2023-04-10T06:03:04.175Z,96176
2023-04-10T06:04:12.992Z,96180
2023-04-10T06:05:21.612Z,96184
2023-04-10T06:06:31.260Z,96180
2023-04-10T06:07:38.945Z,96185
2023-04-10T06:08:48.645Z,96186
2023-04-10T06:09:57.342Z,96186
2023-04-10T06:11:04.998Z,96187
2023-04-10T06:12:13.638Z,96187
2023-04-10T06:13:22.371Z,96186
2023-04-10T06:14:31.070Z,96192
2023-04-10T06:15:40.864Z,96186
2023-04-10T06:16:49.477Z,96191
2023-04-10T06:17:59.179Z,96189
2023-04-10T06:19:07.863Z,96192
2023-04-10T06:20:15.648Z,96189
2023-04-10T06:21:24.451Z,96195
2023-04-10T06:22:32.963Z,96192
2023-04-10T06:23:42.631Z,96189
2023-04-10T06:24:52.392Z,96192
2023-04-10T06:26:00.130Z,96188
2023-04-10T06:27:09.788Z,96193
2023-04-10T06:28:19.490Z,96188
2023-04-10T06:29:29.223Z,96188
2023-04-10T06:30:38.895Z,96192
2023-04-10T06:31:47.568Z,96180
2023-04-10T06:32:56.278Z,96181
2023-04-10T06:34:05.929Z,96185
2023-04-10T06:35:14.730Z,96182
2023-04-10T06:36:24.380Z,96182
2023-04-10T06:37:33.085Z,96183
2023-04-10T06:38:40.903Z,96182
2023-04-10T06:39:50.598Z,96181
2023-04-10T06:40:59.308Z,96181
2023-04-10T06:42:08.022Z,96180
2023-04-10T06:43:17.650Z,96175
2023-04-10T06:44:27.387Z,96176
2023-04-10T06:45:36.033Z,96173
2023-04-10T06:46:45.788Z,96171
2023-04-10T06:47:54.493Z,96173
2023-04-10T06:49:03.054Z,96172
2023-04-10T06:50:11.857Z,96175
2023-04-10T06:51:20.486Z,96170
2023-04-10T06:52:30.155Z,96173
2023-04-10T06:53:38.840Z,96173
2023-04-10T06:54:47.586Z,96175
2023-04-10T06:55:57.278Z,96173
2023-04-10T06:57:06.918Z,96170
2023-04-10T06:58:15.602Z,96164
2023-04-10T06:59:25.293Z,96167
2023-04-10T07:00:33.986Z,96170
2023-04-10T07:01:43.734Z,96167
2023-04-10T07:02:51.408Z,96164
2023-04-10T07:03:59.991Z,96170
2023-04-10T07:05:09.658Z,96172
2023-04-10T07:06:19.319Z,96165
2023-04-10T07:07:27.964Z,96167
2023-04-10T07:08:36.676Z,96166
2023-04-10T07:09:45.360Z,96164
2023-04-10T07:10:56.579Z,96170
2023-04-10T07:12:04.679Z,96171
2023-04-10T07:13:14.348Z,96167
2023-04-10T07:14:24.044Z,96164
2023-04-10T07:15:32.853Z,96163
2023-04-10T07:16:41.508Z,96162
2023-04-10T07:17:50.159Z,96158
2023-04-10T07:19:00.822Z,96163
2023-04-10T07:20:10.502Z,96158
2023-04-10T07:21:19.164Z,96153
2023-04-10T07:22:28.841Z,96163
2023-04-10T07:23:38.516Z,96158
2023-04-10T07:24:46.203Z,96157
2023-04-10T07:25:54.849Z,96164
2023-04-10T07:27:02.522Z,96164
2023-04-10T07:28:12.175Z,96162
2023-04-10T07:29:21.838Z,96160
2023-04-10T07:30:30.559Z,96170
2023-04-10T07:31:40.340Z,96165
2023-04-10T07:32:50.076Z,96168
2023-04-10T07:33:57.593Z,96165
2023-04-10T07:35:06.282Z,96164
2023-04-10T07:36:15.998Z,96161
2023-04-10T07:37:25.691Z,96173
2023-04-10T07:38:35.347Z,96172
2023-04-10T07:39:44.005Z,96170
2023-04-10T07:40:53.717Z,96169
2023-04-10T07:42:03.372Z,96169
2023-04-10T07:43:11.033Z,96168
2023-04-10T07:44:19.761Z,96168
2023-04-10T07:45:29.462Z,96169
2023-04-10T07:46:38.112Z,96166
2023-04-10T07:47:47.859Z,96165
2023-04-10T07:48:57.459Z,96167
2023-04-10T07:50:06.126Z,96166
2023-04-10T07:51:15.843Z,96171
2023-04-10T07:52:25.516Z,96170
2023-04-10T07:53:34.206Z,96170
2023-04-10T07:54:43.905Z,96170
2023-04-10T07:55:52.568Z,96172
2023-04-10T07:57:02.279Z,96172
2023-04-10T07:58:09.965Z,96173
2023-04-10T07:59:19.625Z,96172
2023-04-10T08:00:28.327Z,96168
2023-04-10T08:01:37.994Z,96164
2023-04-10T08:02:47.745Z,96164
2023-04-10T08:03:58.062Z,96164
2023-04-10T08:05:08.560Z,96171
2023-04-10T08:06:18.344Z,96168
2023-04-10T08:07:26.998Z,96168
2023-04-10T08:08:36.653Z,96168
2023-04-10T08:09:46.320Z,96167
2023-04-10T08:10:55.013Z,96166
2023-04-10T08:12:04.666Z,96164
2023-04-10T08:13:14.356Z,96168
2023-04-10T08:14:24.023Z,96172
2023-04-10T08:15:32.702Z,96166
2023-04-10T08:16:42.572Z,96165
2023-04-10T08:17:50.261Z,96167
2023-04-10T08:18:58.977Z,96169
2023-04-10T08:20:07.718Z,96167
2023-04-10T08:21:16.408Z,96169
2023-04-10T08:22:25.091Z,96167
2023-04-10T08:23:33.747Z,96165
2023-04-10T08:24:42.412Z,96163
2023-04-10T08:25:52.069Z,96162
2023-04-10T08:27:00.823Z,96168
2023-04-10T08:28:09.482Z,96169
2023-04-10T08:29:18.142Z,96160
2023-04-10T08:30:26.849Z,96161
2023-04-10T08:31:36.537Z,96161
2023-04-10T08:32:46.239Z,96166
2023-04-10T08:33:56.035Z,96168
2023-04-10T08:35:05.629Z,96166
2023-04-10T08:36:14.462Z,96166
2023-04-10T08:37:24.151Z,96164
2023-04-10T08:38:32.803Z,96156
2023-04-10T08:39:41.502Z,96163
2023-04-10T08:40:51.173Z,96161
2023-04-10T08:41:58.897Z,96161
2023-04-10T08:43:08.570Z,96156
2023-04-10T08:44:18.250Z,96159
2023-04-10T08:45:26.940Z,96157
2023-04-10T08:46:35.669Z,96160
2023-04-10T08:47:44.322Z,96161
2023-04-10T08:48:52.974Z,96157
2023-04-10T08:50:03.016Z,96161
2023-04-10T08:51:15.741Z,96163
2023-04-10T08:52:20.412Z,96159
2023-04-10T08:53:30.216Z,96164
2023-04-10T08:54:38.071Z,96161
2023-04-10T08:55:47.796Z,96157
2023-04-10T08:56:56.485Z,96159
2023-04-10T08:58:05.302Z,96156
2023-04-10T08:59:14.945Z,96160
2023-04-10T09:00:23.516Z,96160
2023-04-10T09:01:31.415Z,96159
2023-04-10T09:02:42.505Z,96159
2023-04-10T09:03:49.732Z,96157
2023-04-10T09:04:59.353Z,96160
2023-04-10T09:06:09.034Z,96154
2023-04-10T09:07:18.723Z,96156
2023-04-10T09:08:28.430Z,96157
2023-04-10T09:09:36.060Z,96152
2023-04-10T09:10:44.712Z,96158
2023-04-10T09:11:54.391Z,96160
2023-04-10T09:13:03.052Z,96153
2023-04-10T09:14:11.694Z,96162
2023-04-10T09:15:21.407Z,96160
2023-04-10T09:16:30.317Z,96153
2023-04-10T09:17:39.776Z,96153
2023-04-10T09:18:48.481Z,96150
2023-04-10T09:19:58.106Z,96151
2023-04-10T09:21:07.797Z,96151
2023-04-10T09:22:16.621Z,96149
2023-04-10T09:23:25.250Z,96148
2023-04-10T09:24:35.772Z,96147
2023-04-10T09:25:42.563Z,96141
2023-04-10T09:26:53.236Z,96139
2023-04-10T09:28:01.903Z,96142
2023-04-10T09:29:10.566Z,96139
2023-04-10T09:30:19.301Z,96142
2023-04-10T09:31:26.948Z,96140
2023-04-10T09:32:36.614Z,96139
2023-04-10T09:33:45.326Z,96139
2023-04-10T09:34:54.005Z,96140
2023-04-10T09:36:02.729Z,96134
2023-04-10T09:37:11.368Z,96140
2023-04-10T09:38:20.065Z,96127
2023-04-10T09:39:29.699Z,96130
2023-04-10T09:40:38.413Z,96134
2023-04-10T09:41:47.118Z,96132
2023-04-10T09:42:55.798Z,96125
2023-04-10T09:44:04.499Z,96125
2023-04-10T09:45:14.147Z,96124
2023-04-10T09:46:22.795Z,96118
2023-04-10T09:47:31.533Z,96116
2023-04-10T09:48:41.187Z,96113
2023-04-10T09:49:49.953Z,96117
2023-04-10T09:50:59.594Z,96115
2023-04-10T09:52:08.324Z,96114
2023-04-10T09:53:18.053Z,96111
2023-04-10T09:54:27.775Z,96106
2023-04-10T09:55:36.433Z,96103
2023-04-10T09:56:45.105Z,96101
2023-04-10T09:57:54.836Z,96098
2023-04-10T09:59:03.499Z,96104
2023-04-10T10:00:12.251Z,96103
2023-04-10T10:01:21.975Z,96100
2023-04-10T10:02:30.777Z,96097
2023-04-10T10:03:38.364Z,96097
2023-04-10T10:04:48.327Z,96100
2023-04-10T10:05:55.962Z,96095
2023-04-10T10:07:05.676Z,96097
2023-04-10T10:08:14.426Z,96095
2023-04-10T10:09:23.086Z,96091
2023-04-10T10:10:32.810Z,96090
2023-04-10T10:11:40.537Z,96090
2023-04-10T10:12:49.237Z,96096
2023-04-10T10:13:58.910Z,96088
2023-04-10T10:15:07.576Z,96088
2023-04-10T10:16:16.270Z,96083
2023-04-10T10:17:25.038Z,96078
2023-04-10T10:18:34.645Z,96079
2023-04-10T10:19:44.328Z,96076
2023-04-10T10:20:52.017Z,96074
2023-04-10T10:22:01.769Z,96078
2023-04-10T10:23:11.458Z,96078
2023-04-10T10:24:21.103Z,96069
2023-04-10T10:25:30.791Z,96070
2023-04-10T10:26:39.460Z,96073
2023-04-10T10:27:49.089Z,96070
2023-04-10T10:28:58.745Z,96070
2023-04-10T10:30:16.323Z,96072
2023-04-10T10:31:18.090Z,96077
2023-04-10T10:32:27.811Z,96071
2023-04-10T10:33:36.486Z,96075
2023-04-10T10:34:46.148Z,96072
2023-04-10T10:35:55.812Z,96067
2023-04-10T10:37:04.448Z,96072
2023-04-10T10:38:14.142Z,96067
2023-04-10T10:39:22.798Z,96061
2023-04-10T10:40:32.493Z,96057
2023-04-10T10:41:42.210Z,96051
2023-04-10T10:42:51.879Z,96052
2023-04-10T10:44:00.523Z,96048
2023-04-10T10:45:08.188Z,96049
2023-04-10T10:46:17.875Z,96047
2023-04-10T10:47:27.528Z,96049
2023-04-10T10:48:36.171Z,96048
2023-04-10T10:49:44.819Z,96048
2023-04-10T10:50:54.481Z,96050
2023-04-10T10:52:02.175Z,96041
2023-04-10T10:53:11.856Z,96037
2023-04-10T10:54:21.542Z,96037
2023-04-10T10:55:31.221Z,96041
2023-04-10T10:56:40.910Z,96040
2023-04-10T10:57:49.612Z,96042
2023-04-10T10:58:58.253Z,96042
2023-04-10T11:00:06.901Z,96030
2023-04-10T11:01:14.648Z,96030
2023-04-10T11:02:24.309Z,96022
2023-04-10T11:03:33.106Z,96020
2023-04-10T11:04:42.629Z,96020
2023-04-10T11:05:52.305Z,96019
2023-04-10T11:06:59.960Z,96018
2023-04-10T11:08:08.638Z,96018
2023-04-10T11:09:18.267Z,96019
2023-04-10T11:10:26.929Z,96016
2023-04-10T11:11:36.567Z,96012
2023-04-10T11:12:45.233Z,96013
2023-04-10T11:13:53.923Z,96011
2023-04-10T11:15:03.554Z,96007
2023-04-10T11:16:12.238Z,96011
2023-04-10T11:17:20.869Z,96004
2023-04-10T11:18:30.574Z,96007
2023-04-10T11:19:38.231Z,96003
2023-04-10T11:20:45.916Z,95997
2023-04-10T11:21:55.602Z,96000
2023-04-10T11:23:04.276Z,95998
2023-04-10T11:24:13.943Z,95999
2023-04-10T11:25:22.660Z,95995
2023-04-10T11:26:31.378Z,95995
2023-04-10T11:27:41.084Z,95991
2023-04-10T11:28:48.786Z,95993
2023-04-10T11:29:58.468Z,95994
2023-04-10T11:31:08.117Z,95991
2023-04-10T11:32:17.802Z,95995
2023-04-10T11:33:27.474Z,95992
2023-04-10T11:34:37.165Z,95990
2023-04-10T11:35:45.945Z,95985
2023-04-10T11:36:55.527Z,95982
2023-04-10T11:38:04.166Z,95975
2023-04-10T11:39:13.884Z,95982
2023-04-10T11:40:22.563Z,95979
2023-04-10T11:41:31.203Z,95981
2023-04-10T11:42:40.990Z,95980
2023-04-10T11:43:48.689Z,95975
2023-04-10T11:44:57.367Z,95976
2023-04-10T11:46:07.098Z,95972
2023-04-10T11:47:15.819Z,95974
2023-04-10T11:48:24.480Z,95971
2023-04-10T11:49:32.169Z,95972
2023-04-10T11:50:40.812Z,95971
2023-04-10T11:51:50.533Z,95965
2023-04-10T11:52:59.236Z,95965
2023-04-10T11:54:08.933Z,95967
2023-04-10T11:55:18.598Z,95964
2023-04-10T11:56:27.383Z,95954
2023-04-10T11:57:37.082Z,95953
2023-04-10T11:58:46.789Z,95955
2023-04-10T11:59:54.506Z,95956
2023-04-10T12:01:03.165Z,95959
2023-04-10T12:02:11.930Z,95954
2023-04-10T12:03:20.603Z,95952
2023-04-10T12:04:29.322Z,95952
2023-04-10T12:05:37.837Z,95956
2023-04-10T12:06:46.493Z,95954
2023-04-10T12:07:56.144Z,95952
2023-04-10T12:09:05.834Z,95948
2023-04-10T12:10:14.540Z,95950
2023-04-10T12:11:24.248Z,95948
2023-04-10T12:12:31.915Z,95953
2023-04-10T12:13:40.608Z,95951
2023-04-10T12:14:49.278Z,95946
2023-04-10T12:15:59.070Z,95952
2023-04-10T12:17:08.592Z,95952
2023-04-10T12:18:17.292Z,95947
2023-04-10T12:19:25.959Z,95951
2023-04-10T12:20:35.659Z,95949
2023-04-10T12:21:44.352Z,95947
2023-04-10T12:22:54.960Z,95954
2023-04-10T12:24:03.658Z,95947
2023-04-10T12:25:12.356Z,95946
2023-04-10T12:26:22.009Z,95943
2023-04-10T12:27:31.693Z,95940
2023-04-10T12:28:40.341Z,95942
2023-04-10T12:29:50.044Z,95945
2023-04-10T12:30:58.712Z,95942
2023-04-10T12:32:08.414Z,95938
2023-04-10T12:33:17.104Z,95948
2023-04-10T12:34:25.840Z,95947
2023-04-10T12:35:35.516Z,95945
2023-04-10T12:36:44.150Z,95939
2023-04-10T12:37:53.806Z,95946
2023-04-10T12:39:03.539Z,95944
2023-04-10T12:40:13.201Z,95938
2023-04-10T12:41:21.964Z,95936
2023-04-10T12:42:31.814Z,95937
2023-04-10T12:43:41.546Z,95928
2023-04-10T12:44:50.256Z,95932
2023-04-10T12:45:58.970Z,95934
2023-04-10T12:47:07.699Z,95930
2023-04-10T12:48:17.404Z,95932
2023-04-10T12:49:25.090Z,95930
2023-04-10T12:50:34.798Z,95929
2023-04-10T12:51:44.432Z,95918
2023-04-10T12:52:54.144Z,95916
2023-04-10T12:54:03.845Z,95915
2023-04-10T12:55:13.543Z,95912
2023-04-10T12:56:23.221Z,95915
2023-04-10T12:57:32.901Z,95919
2023-04-10T12:58:40.549Z,95912
2023-04-10T12:59:50.366Z,95914
2023-04-10T13:00:59.041Z,95914
2023-04-10T13:02:07.769Z,95913
2023-04-10T13:03:17.542Z,95910
2023-04-10T13:04:26.137Z,95906
2023-04-10T13:05:34.731Z,95905
2023-04-10T13:06:44.444Z,95903
2023-04-10T13:07:52.038Z,95904
2023-04-10T13:09:00.750Z,95902
2023-04-10T13:10:09.454Z,95899
2023-04-10T13:11:19.103Z,95903
2023-04-10T13:12:28.814Z,95905
2023-04-10T13:13:38.487Z,95904
2023-04-10T13:14:47.198Z,95901
2023-04-10T13:15:56.934Z,95903
2023-04-10T13:17:05.618Z,95902
2023-04-10T13:18:14.323Z,95903
2023-04-10T13:19:22.947Z,95901
2023-04-10T13:20:32.798Z,95893
2023-04-10T13:21:42.507Z,95903
2023-04-10T13:22:51.207Z,95899
2023-04-10T13:24:00.865Z,95895
2023-04-10T13:25:10.535Z,95899
2023-04-10T13:26:19.250Z,95894
2023-04-10T13:27:28.922Z,95891
2023-04-10T13:28:37.588Z,95889
2023-04-10T13:29:46.278Z,95893
2023-04-10T13:30:55.961Z,95888
2023-04-10T13:32:03.624Z,95877
2023-04-10T13:33:13.297Z,95874
2023-04-10T13:34:22.950Z,95867
2023-04-10T13:35:31.656Z,95870
2023-04-10T13:36:41.360Z,95871
2023-04-10T13:37:50.994Z,95872
2023-04-10T13:38:59.671Z,95868
2023-04-10T13:40:09.335Z,95872
2023-04-10T13:41:19.006Z,95864
2023-04-10T13:42:27.651Z,95859
2023-04-10T13:43:38.300Z,95859
2023-04-10T13:44:47.962Z,95860
2023-04-10T13:45:56.640Z,95855
2023-04-10T13:47:06.424Z,95855
2023-04-10T13:48:14.946Z,95856
2023-04-10T13:49:25.584Z,95852
2023-04-10T13:50:33.261Z,95846
2023-04-10T13:51:42.923Z,95848
2023-04-10T13:52:53.754Z,95839
2023-04-10T13:54:02.311Z,95843
2023-04-10T13:55:11.965Z,95843
2023-04-10T13:56:21.610Z,95843
2023-04-10T13:57:30.269Z,95843
2023-04-10T13:58:39.929Z,95840
2023-04-10T13:59:49.585Z,95843
2023-04-10T14:01:00.268Z,95836
2023-04-10T14:02:08.972Z,95831
2023-04-10T14:03:17.745Z,95832
2023-04-10T14:04:26.263Z,95832
2023-04-10T14:05:35.978Z,95833
2023-04-10T14:06:44.633Z,95838
2023-04-10T14:07:54.267Z,95833
2023-04-10T14:09:03.929Z,95833
2023-04-10T14:10:11.608Z,95840
2023-04-10T14:11:20.368Z,95836
2023-04-10T14:12:30.080Z,95840
2023-04-10T14:13:38.783Z,95835
2023-04-10T14:14:48.540Z,95830
2023-04-10T14:15:56.227Z,95827
2023-04-10T14:17:04.909Z,95829
2023-04-10T14:18:14.572Z,95827
2023-04-10T14:19:23.241Z,95827
2023-04-10T14:20:31.917Z,95822
2023-04-10T14:21:40.576Z,95829
2023-04-10T14:22:49.220Z,95826
2023-04-10T14:23:58.869Z,95825
2023-04-10T14:25:12.826Z,95822
2023-04-10T14:26:17.302Z,95820
2023-04-10T14:27:26.921Z,95818
2023-04-10T14:28:35.625Z,95812
2023-04-10T14:29:54.141Z,95808
2023-04-10T14:30:55.898Z,95808
2023-04-10T14:32:06.588Z,95808
2023-04-10T14:33:16.325Z,95802
2023-04-10T14:34:25.919Z,95804
2023-04-10T14:35:35.612Z,95801
2023-04-10T14:36:45.297Z,95797
2023-04-10T14:37:52.969Z,95800
2023-04-10T14:39:01.646Z,95798
2023-04-10T14:40:10.306Z,95798
2023-04-10T14:41:19.000Z,95799
2023-04-10T14:42:28.659Z,95800
2023-04-10T14:43:37.335Z,95796
2023-04-10T14:44:45.987Z,95792
2023-04-10T14:45:55.672Z,95787
2023-04-10T14:47:03.342Z,95780
2023-04-10T14:48:13.416Z,95788
2023-04-10T14:49:22.734Z,95788